createdAt,value
2019-02-25T00:00:52.806Z,28.87
2019-02-25T00:03:20.081Z,27.50
2019-02-25T00:05:47.326Z,26.77
2019-02-25T00:08:14.633Z,27.63
2019-02-25T00:10:41.879Z,28.33
2019-02-25T00:13:09.124Z,27.87
2019-02-25T00:15:36.621Z,26.67
2019-02-25T00:18:03.871Z,27.47
2019-02-25T00:20:31.111Z,26.20
2019-02-25T00:22:58.380Z,26.93
2019-02-25T00:25:25.632Z,27.40
2019-02-25T00:27:52.896Z,22.30
2019-02-25T00:30:20.139Z,28.10
2019-02-25T00:32:47.410Z,29.37
2019-02-25T00:35:14.647Z,27.53
2019-02-25T00:37:41.901Z,29.30
2019-02-25T00:40:10.708Z,29.23
2019-02-25T00:42:37.955Z,26.57
2019-02-25T00:45:08.205Z,26.77
2019-02-25T00:47:35.499Z,28.53
2019-02-25T00:50:05.347Z,23.80
2019-02-25T00:52:32.594Z,29.40
2019-02-25T00:54:59.856Z,29.27
2019-02-25T00:57:27.103Z,28.87
2019-02-25T00:59:54.304Z,30.57
2019-02-25T01:02:21.563Z,31.90
2019-02-25T01:04:48.881Z,31.30
2019-02-25T01:07:16.125Z,29.17
2019-02-25T01:09:43.416Z,28.43
2019-02-25T01:12:10.560Z,29.13
2019-02-25T01:14:37.815Z,31.77
2019-02-25T01:17:05.086Z,29.10
2019-02-25T01:19:32.354Z,31.60
2019-02-25T01:21:59.598Z,28.00
2019-02-25T01:24:26.919Z,29.00
2019-02-25T01:26:54.172Z,32.70
2019-02-25T01:29:21.419Z,35.17
2019-02-25T01:31:48.697Z,33.93
2019-02-25T01:34:15.985Z,33.43
2019-02-25T01:36:43.227Z,32.47
2019-02-25T01:39:10.499Z,33.27
2019-02-25T01:41:37.743Z,33.27
2019-02-25T01:44:05.296Z,33.33
2019-02-25T01:46:32.568Z,33.80
2019-02-25T01:48:59.824Z,33.80
2019-02-25T01:51:27.121Z,34.43
2019-02-25T01:53:54.367Z,34.07
2019-02-25T01:56:21.615Z,35.60
2019-02-25T01:58:48.955Z,34.63
2019-02-25T02:01:16.195Z,36.13
2019-02-25T02:03:43.435Z,35.70
2019-02-25T02:06:10.709Z,35.83
2019-02-25T02:08:38.276Z,33.27
2019-02-25T02:11:05.546Z,31.13
2019-02-25T02:13:32.811Z,35.70
2019-02-25T02:16:00.047Z,34.20
2019-02-25T02:18:27.361Z,36.53
2019-02-25T02:20:54.612Z,36.17
2019-02-25T02:23:21.868Z,38.03
2019-02-25T02:25:49.168Z,37.37
2019-02-25T02:28:16.419Z,36.33
2019-02-25T02:30:43.667Z,36.03
2019-02-25T02:33:10.941Z,32.33
2019-02-25T02:35:38.180Z,36.77
2019-02-25T02:38:05.469Z,36.63
2019-02-25T02:40:32.720Z,34.33
2019-02-25T02:43:00.516Z,37.60
2019-02-25T02:45:31.442Z,35.10
2019-02-25T02:48:04.635Z,34.03
2019-02-25T02:50:31.988Z,33.67
2019-02-25T02:52:59.218Z,34.70
2019-02-25T02:55:26.512Z,35.97
2019-02-25T02:57:53.845Z,36.87
2019-02-25T03:00:21.121Z,34.27
2019-02-25T03:02:48.376Z,35.60
2019-02-25T03:05:16.173Z,34.73
2019-02-25T03:07:43.510Z,37.47
2019-02-25T03:10:13.482Z,35.13
2019-02-25T03:12:40.788Z,36.00
2019-02-25T03:15:10.649Z,40.47
2019-02-25T03:17:37.891Z,30.17
2019-02-25T03:20:07.661Z,37.20
2019-02-25T03:22:34.908Z,35.23
2019-02-25T03:25:02.477Z,32.37
2019-02-25T03:27:29.762Z,37.60
2019-02-25T03:29:57.022Z,34.20
2019-02-25T03:32:24.297Z,36.90
2019-02-25T03:34:51.535Z,36.40
2019-02-25T03:37:18.841Z,35.93
2019-02-25T03:39:46.075Z,36.57
2019-02-25T03:42:13.320Z,36.57
2019-02-25T03:44:40.637Z,37.40
2019-02-25T03:47:07.899Z,36.67
2019-02-25T03:49:35.139Z,34.13
2019-02-25T03:52:02.494Z,36.63
2019-02-25T03:54:29.795Z,34.33
2019-02-25T03:56:57.037Z,35.00
2019-02-25T03:59:24.295Z,34.60
2019-02-25T04:01:51.663Z,32.40
2019-02-25T04:04:18.977Z,32.43
2019-02-25T04:06:46.237Z,33.47
2019-02-25T04:09:13.488Z,33.40
2019-02-25T04:11:40.798Z,33.23
2019-02-25T04:14:08.039Z,31.03
2019-02-25T04:16:35.300Z,33.07
2019-02-25T04:19:02.625Z,31.50
2019-02-25T04:21:29.894Z,32.13
2019-02-25T04:23:57.159Z,30.83
2019-02-25T04:26:24.420Z,29.93
2019-02-25T04:28:51.664Z,27.83
2019-02-25T04:31:18.928Z,28.40
2019-02-25T04:33:46.204Z,28.80
2019-02-25T04:36:13.449Z,38.57
2019-02-25T04:38:40.781Z,45.63
2019-02-25T04:41:08.062Z,43.53
2019-02-25T04:43:35.367Z,38.90
2019-02-25T04:46:02.645Z,28.10
2019-02-25T04:48:29.896Z,27.50
2019-02-25T04:50:57.167Z,27.57
2019-02-25T04:53:24.433Z,18.93
2019-02-25T04:55:51.706Z,26.70
2019-02-25T04:58:18.960Z,27.67
2019-02-25T05:00:46.266Z,26.83
2019-02-25T05:03:13.536Z,28.37
2019-02-25T05:05:40.983Z,29.03
2019-02-25T05:08:08.274Z,28.20
2019-02-25T05:10:35.518Z,28.93
2019-02-25T05:13:04.174Z,27.47
2019-02-25T05:15:32.468Z,38.63
2019-02-25T05:17:59.712Z,37.63
2019-02-25T05:20:26.975Z,36.20
2019-02-25T05:22:54.241Z,36.43
2019-02-25T05:25:21.539Z,32.90
2019-02-25T05:27:48.860Z,43.03
2019-02-25T05:30:16.556Z,37.60
2019-02-25T05:32:43.814Z,40.37
2019-02-25T05:35:12.086Z,44.07
2019-02-25T05:37:39.334Z,46.53
2019-02-25T05:40:10.048Z,32.33
2019-02-25T05:42:37.309Z,39.77
2019-02-25T05:45:05.066Z,34.90
2019-02-25T05:47:32.341Z,35.53
2019-02-25T05:49:59.729Z,30.03
2019-02-25T05:52:26.995Z,32.67
2019-02-25T05:54:56.075Z,46.13
2019-02-25T05:57:24.221Z,43.13
2019-02-25T05:59:51.593Z,31.87
2019-02-25T06:02:18.909Z,30.33
2019-02-25T06:04:46.255Z,31.60
2019-02-25T06:07:13.625Z,43.40
2019-02-25T06:09:40.911Z,36.60
2019-02-25T06:12:08.608Z,38.87
2019-02-25T06:14:35.923Z,40.27
2019-02-25T06:17:03.219Z,41.83
2019-02-25T06:19:30.501Z,40.60
2019-02-25T06:21:57.850Z,26.57
2019-02-25T06:24:25.136Z,23.20
2019-02-25T06:26:52.549Z,23.20
2019-02-25T06:29:19.841Z,39.53
2019-02-25T06:31:47.187Z,52.53
2019-02-25T06:34:14.457Z,52.53
2019-02-25T06:36:41.853Z,69.07
2019-02-25T06:39:09.218Z,55.03
2019-02-25T06:41:36.548Z,33.20
2019-02-25T06:44:03.867Z,26.90
2019-02-25T06:46:31.372Z,27.77
2019-02-25T06:48:58.616Z,21.87
2019-02-25T06:51:25.855Z,21.97
2019-02-25T06:53:53.181Z,35.30
2019-02-25T06:56:20.428Z,28.40
2019-02-25T06:58:47.677Z,22.47
2019-02-25T07:01:15.993Z,56.10
2019-02-25T07:03:45.033Z,47.30
2019-02-25T07:06:14.100Z,30.63
2019-02-25T07:08:43.180Z,33.33
2019-02-25T07:11:12.223Z,34.53
2019-02-25T07:13:41.295Z,24.73
2019-02-25T07:16:26.783Z,38.37
2019-02-25T07:19:01.746Z,29.53
2019-02-25T07:21:30.821Z,48.40
2019-02-25T07:24:05.680Z,28.40
2019-02-25T07:26:34.752Z,31.17
2019-02-25T07:29:10.111Z,18.83
2019-02-25T07:31:39.160Z,19.47
2019-02-25T07:34:20.196Z,22.93
2019-02-25T07:37:05.623Z,28.00
2019-02-25T07:39:37.455Z,21.77
2019-02-25T07:42:10.902Z,40.47
2019-02-25T07:44:39.968Z,48.43
2019-02-25T07:47:14.635Z,37.80
2019-02-25T07:49:49.730Z,26.67
2019-02-25T07:52:36.755Z,20.07
2019-02-25T07:55:26.083Z,18.63
2019-02-25T07:58:04.426Z,24.53
2019-02-25T08:00:33.477Z,45.00
2019-02-25T08:03:08.396Z,38.00
2019-02-25T08:05:37.463Z,27.30
2019-02-25T08:08:06.537Z,30.70
2019-02-25T08:10:51.768Z,22.13
2019-02-25T08:13:26.721Z,24.87
2019-02-25T08:16:01.723Z,34.50
2019-02-25T08:18:45.694Z,37.27
2019-02-25T08:21:31.235Z,26.47
2019-02-25T08:24:17.326Z,35.63
2019-02-25T08:27:05.437Z,19.70
2019-02-25T08:29:43.033Z,25.27
2019-02-25T08:32:12.076Z,33.70
2019-02-25T08:34:41.189Z,35.07
2019-02-25T08:37:41.026Z,33.57
2019-02-25T08:40:28.794Z,17.87
2019-02-25T08:43:00.161Z,19.83
2019-02-25T08:45:29.286Z,20.20
2019-02-25T08:47:58.914Z,18.00
2019-02-25T08:50:26.262Z,19.00
2019-02-25T08:52:53.531Z,14.47
2019-02-25T08:55:20.780Z,18.70
2019-02-25T08:57:49.911Z,29.90
2019-02-25T09:00:17.334Z,18.27
2019-02-25T09:02:44.579Z,20.27
2019-02-25T09:05:14.927Z,20.33
2019-02-25T09:07:42.871Z,29.87
2019-02-25T09:10:13.581Z,22.47
2019-02-25T09:12:40.992Z,17.00
2019-02-25T09:15:14.467Z,16.30
2019-02-25T09:17:44.711Z,14.80
2019-02-25T09:20:15.397Z,24.20
2019-02-25T09:22:42.713Z,18.43
2019-02-25T09:25:11.657Z,30.20
2019-02-25T09:27:39.103Z,23.50
2019-02-25T09:30:14.473Z,17.73
2019-02-25T09:32:41.785Z,15.80
2019-02-25T09:35:09.119Z,21.87
2019-02-25T09:37:37.305Z,18.80
2019-02-25T09:40:07.902Z,14.57
2019-02-25T09:42:35.148Z,13.23
2019-02-25T09:45:03.919Z,11.53
2019-02-25T09:47:31.237Z,13.83
2019-02-25T09:49:58.553Z,13.87
2019-02-25T09:52:25.849Z,13.67
2019-02-25T09:54:53.104Z,11.57
2019-02-25T09:57:20.412Z,14.10
2019-02-25T09:59:47.751Z,14.13
2019-02-25T10:02:15.057Z,18.23
2019-02-25T10:04:42.307Z,15.17
2019-02-25T10:07:09.721Z,15.00
2019-02-25T10:09:36.983Z,16.10
2019-02-25T10:12:04.183Z,16.30
2019-02-25T10:14:31.484Z,15.73
2019-02-25T10:16:58.960Z,20.00
2019-02-25T10:19:26.341Z,17.57
2019-02-25T10:21:53.576Z,11.30
2019-02-25T10:24:20.830Z,10.93
2019-02-25T10:26:48.145Z,14.87
2019-02-25T10:29:15.387Z,18.57
2019-02-25T10:31:43.823Z,14.13
2019-02-25T10:34:11.144Z,13.93
2019-02-25T10:36:38.391Z,12.50
2019-02-25T10:39:11.260Z,11.70
2019-02-25T10:41:38.345Z,14.77
2019-02-25T10:44:06.496Z,12.90
2019-02-25T10:46:34.665Z,14.97
2019-02-25T10:49:11.139Z,14.87
2019-02-25T10:51:31.018Z,8.23
2019-02-25T10:53:58.260Z,8.87
2019-02-25T10:56:31.876Z,8.20
2019-02-25T10:59:00.220Z,8.87
2019-02-25T11:01:28.411Z,10.67
2019-02-25T11:03:55.674Z,12.00
2019-02-25T11:06:24.565Z,9.30
2019-02-25T11:08:53.786Z,12.13
2019-02-25T11:11:24.835Z,13.47
2019-02-25T11:13:51.929Z,17.23
2019-02-25T11:16:20.460Z,15.53
2019-02-25T11:18:47.813Z,14.37
2019-02-25T11:21:15.115Z,13.07
2019-02-25T11:23:43.412Z,13.43
2019-02-25T11:26:11.509Z,9.37
2019-02-25T11:28:41.045Z,9.73
2019-02-25T11:31:07.859Z,11.53
2019-02-25T11:33:35.151Z,10.70
2019-02-25T11:36:02.424Z,12.93
2019-02-25T11:38:30.526Z,12.73
2019-02-25T11:40:59.910Z,15.57
2019-02-25T11:43:27.852Z,15.47
2019-02-25T11:45:55.112Z,16.60
2019-02-25T11:48:22.738Z,13.63
2019-02-25T11:50:50.116Z,17.93
2019-02-25T11:53:17.412Z,16.87
2019-02-25T11:55:44.668Z,16.70
2019-02-25T11:58:11.916Z,17.30
2019-02-25T12:00:39.871Z,18.17
2019-02-25T12:03:07.282Z,19.87
2019-02-25T12:05:34.542Z,24.40
2019-02-25T12:08:01.804Z,14.13
2019-02-25T12:10:29.054Z,11.33
2019-02-25T12:12:56.333Z,14.13
2019-02-25T12:15:23.593Z,18.17
2019-02-25T12:17:50.940Z,17.57
2019-02-25T12:20:18.284Z,18.83
2019-02-25T12:22:45.558Z,15.67
2019-02-25T12:25:17.307Z,18.10
2019-02-25T12:27:44.607Z,18.63
2019-02-25T12:30:19.672Z,16.00
2019-02-25T12:32:46.943Z,20.60
2019-02-25T12:35:14.641Z,18.10
2019-02-25T12:37:42.036Z,16.90
2019-02-25T12:40:11.302Z,18.83
2019-02-25T12:42:38.560Z,22.27
2019-02-25T12:45:13.127Z,21.30
2019-02-25T12:47:40.900Z,20.60
2019-02-25T12:50:11.177Z,19.67
2019-02-25T12:52:38.426Z,18.03
2019-02-25T12:55:08.979Z,32.13
2019-02-25T12:57:36.231Z,18.80
2019-02-25T13:00:07.043Z,15.43
2019-02-25T13:02:34.300Z,21.10
2019-02-25T13:05:01.881Z,61.10
2019-02-25T13:07:29.156Z,18.30
2019-02-25T13:09:56.404Z,18.07
2019-02-25T13:12:23.714Z,19.90
2019-02-25T13:14:51.059Z,22.00
2019-02-25T13:17:18.421Z,27.20
2019-02-25T13:19:45.744Z,23.83
2019-02-25T13:22:13.011Z,22.23
2019-02-25T13:24:40.325Z,27.37
2019-02-25T13:27:08.402Z,24.47
2019-02-25T13:29:36.564Z,22.13
2019-02-25T13:32:03.811Z,16.20
2019-02-25T13:34:31.060Z,16.53
2019-02-25T13:36:58.335Z,12.80
2019-02-25T13:39:25.788Z,15.70
2019-02-25T13:41:53.057Z,15.47
2019-02-25T13:44:20.305Z,15.53
2019-02-25T13:46:47.620Z,15.20
2019-02-25T13:49:15.081Z,16.20
2019-02-25T13:51:42.335Z,15.17
2019-02-25T13:54:09.724Z,13.13
2019-02-25T13:56:37.078Z,15.63
2019-02-25T13:59:04.493Z,13.60
2019-02-25T14:01:31.960Z,19.20
2019-02-25T14:03:59.208Z,16.57
2019-02-25T14:06:28.364Z,14.33
2019-02-25T14:08:55.519Z,15.70
2019-02-25T14:11:22.839Z,14.17
2019-02-25T14:13:50.079Z,15.10
2019-02-25T14:16:17.317Z,13.23
2019-02-25T14:18:44.902Z,15.87
2019-02-25T14:21:14.748Z,21.23
2019-02-25T14:23:41.777Z,15.80
2019-02-25T14:26:09.065Z,16.77
2019-02-25T14:28:36.412Z,15.73
2019-02-25T14:31:03.692Z,16.40
2019-02-25T14:33:30.959Z,17.07
2019-02-25T14:36:00.012Z,16.30
2019-02-25T14:38:28.172Z,16.57
2019-02-25T14:40:56.860Z,15.77
2019-02-25T14:43:25.496Z,16.73
2019-02-25T14:45:55.749Z,16.93
2019-02-25T14:48:23.056Z,18.47
2019-02-25T14:50:51.485Z,17.57
2019-02-25T14:53:18.763Z,17.57
2019-02-25T14:55:47.791Z,18.27
2019-02-25T14:58:16.921Z,19.93
2019-02-25T15:00:44.189Z,18.23
2019-02-25T15:03:11.463Z,18.03
2019-02-25T15:05:38.707Z,18.13
2019-02-25T15:08:06.015Z,18.80
2019-02-25T15:10:33.964Z,20.30
2019-02-25T15:13:04.014Z,20.90
2019-02-25T15:15:31.471Z,19.80
2019-02-25T15:17:58.718Z,18.57
2019-02-25T15:20:28.361Z,16.13
2019-02-25T15:22:55.079Z,20.47
2019-02-25T15:25:22.455Z,19.07
2019-02-25T15:27:50.001Z,20.33
2019-02-25T15:30:30.715Z,19.27
2019-02-25T15:32:59.256Z,21.47
2019-02-25T15:35:31.266Z,24.50
2019-02-25T15:37:57.678Z,23.87
2019-02-25T15:40:25.536Z,24.77
2019-02-25T15:43:15.107Z,22.00
2019-02-25T15:45:42.536Z,20.57
2019-02-25T15:48:15.668Z,18.97
2019-02-25T15:50:46.138Z,22.33
2019-02-25T15:53:15.954Z,21.60
2019-02-25T15:55:42.082Z,22.30
2019-02-25T15:58:10.055Z,21.60
2019-02-25T16:00:37.719Z,20.17
2019-02-25T16:03:44.363Z,20.00
2019-02-25T16:06:11.705Z,20.67
2019-02-25T16:08:38.987Z,22.37
2019-02-25T16:11:06.529Z,20.80
2019-02-25T16:13:33.971Z,24.53
2019-02-25T16:16:01.708Z,22.93
2019-02-25T16:18:28.954Z,22.90
2019-02-25T16:20:57.473Z,22.93
2019-02-25T16:23:27.875Z,20.63
2019-02-25T16:25:56.842Z,21.87
2019-02-25T16:28:24.177Z,22.20
2019-02-25T16:30:51.460Z,22.03
2019-02-25T16:33:18.709Z,28.97
2019-02-25T16:35:46.250Z,33.13
2019-02-25T16:38:13.681Z,26.33
2019-02-25T16:40:41.056Z,38.17
2019-02-25T16:43:12.626Z,38.93
2019-02-25T16:45:42.532Z,52.20
2019-02-25T16:48:09.415Z,39.37
2019-02-25T16:50:36.765Z,41.80
2019-02-25T16:53:07.925Z,40.03
2019-02-25T16:55:34.028Z,32.37
2019-02-25T16:58:03.470Z,25.37
2019-02-25T17:00:32.402Z,23.77
2019-02-25T17:03:03.332Z,27.60
2019-02-25T17:05:28.540Z,35.77
2019-02-25T17:07:56.341Z,34.13
2019-02-25T17:10:29.184Z,25.23
2019-02-25T17:12:55.818Z,24.17
2019-02-25T17:15:26.335Z,26.23
2019-02-25T17:17:52.565Z,27.27
2019-02-25T17:20:20.628Z,26.70
2019-02-25T17:22:48.228Z,23.20
2019-02-25T17:25:15.700Z,26.33
2019-02-25T17:27:43.167Z,25.50
2019-02-25T17:30:20.232Z,27.07
2019-02-25T17:32:48.375Z,22.67
2019-02-25T17:35:17.202Z,27.93
2019-02-25T17:37:45.985Z,28.20
2019-02-25T17:40:14.763Z,28.13
2019-02-25T17:42:42.140Z,26.77
2019-02-25T17:45:14.580Z,21.63
2019-02-25T17:47:42.427Z,26.03
2019-02-25T17:50:13.738Z,25.70
2019-02-25T17:52:42.582Z,24.60
2019-02-25T17:55:15.346Z,24.40
2019-02-25T17:57:42.595Z,23.50
2019-02-25T18:00:17.273Z,24.23
2019-02-25T18:02:44.681Z,28.83
2019-02-25T18:05:12.531Z,29.00
2019-02-25T18:07:41.996Z,29.67
2019-02-25T18:10:11.357Z,24.53
2019-02-25T18:12:39.078Z,23.37
2019-02-25T18:15:17.259Z,24.33
2019-02-25T18:17:45.363Z,22.47
2019-02-25T18:20:14.020Z,23.23
2019-02-25T18:22:41.272Z,25.87
2019-02-25T18:25:09.651Z,27.80
2019-02-25T18:27:37.404Z,26.43
2019-02-25T18:30:09.309Z,32.53
2019-02-25T18:32:38.988Z,25.89
2019-02-25T18:35:07.896Z,30.83
2019-02-25T18:37:35.898Z,33.00
2019-02-25T18:40:09.106Z,29.80
2019-02-25T18:42:37.035Z,38.87
2019-02-25T18:45:11.163Z,34.27
2019-02-25T18:47:38.339Z,39.83
2019-02-25T18:50:09.456Z,42.97
2019-02-25T18:52:38.508Z,56.23
2019-02-25T18:55:10.979Z,45.13
2019-02-25T18:57:38.345Z,35.97
2019-02-25T19:00:09.529Z,37.87
2019-02-25T19:02:38.044Z,32.83
2019-02-25T19:05:07.212Z,48.30
2019-02-25T19:07:35.617Z,49.57
2019-02-25T19:10:03.197Z,47.57
2019-02-25T19:12:30.672Z,48.57
2019-02-25T19:14:59.814Z,48.43
2019-02-25T19:17:27.554Z,57.70
2019-02-25T19:19:56.387Z,44.13
2019-02-25T19:22:25.486Z,30.20
2019-02-25T19:24:52.813Z,31.87
2019-02-25T19:27:20.104Z,53.40
2019-02-25T19:29:49.235Z,43.10
2019-02-25T19:32:16.545Z,43.50
2019-02-25T19:34:44.856Z,48.90
2019-02-25T19:37:14.365Z,71.20
2019-02-25T19:39:43.775Z,58.13
2019-02-25T19:42:15.078Z,42.87
2019-02-25T19:44:43.093Z,39.63
2019-02-25T19:47:11.931Z,34.13
2019-02-25T19:49:41.413Z,30.63
2019-02-25T19:52:12.159Z,29.13
2019-02-25T19:54:43.348Z,24.67
2019-02-25T19:57:14.026Z,44.93
2019-02-25T19:59:45.860Z,37.33
2019-02-25T20:02:13.738Z,57.10
2019-02-25T20:04:42.302Z,53.30
2019-02-25T20:07:15.983Z,109.77
2019-02-25T20:09:43.056Z,67.43
2019-02-25T20:12:10.352Z,43.50
2019-02-25T20:14:37.947Z,53.87
2019-02-25T20:17:05.409Z,41.90
2019-02-25T20:19:32.725Z,39.87
2019-02-25T20:22:00.067Z,37.07
2019-02-25T20:24:27.377Z,42.90
2019-02-25T20:26:57.863Z,44.93
2019-02-25T20:29:23.639Z,48.97
2019-02-25T20:31:51.855Z,41.97
2019-02-25T20:34:20.796Z,39.00
2019-02-25T20:36:50.479Z,49.57
2019-02-25T20:39:18.188Z,51.20
2019-02-25T20:41:45.903Z,29.50
2019-02-25T20:44:14.845Z,30.03
2019-02-25T20:49:31.690Z,34.30
2019-02-25T20:52:01.136Z,31.70
2019-02-25T20:54:27.606Z,41.10
2019-02-25T20:56:55.514Z,34.00
2019-02-25T20:59:23.992Z,57.23
2019-02-25T21:01:52.742Z,42.90
2019-02-25T21:04:20.637Z,38.17
2019-02-25T21:06:49.370Z,31.57
2019-02-25T21:09:16.699Z,30.33
2019-02-25T21:11:44.063Z,27.30
2019-02-25T21:14:11.468Z,25.10
2019-02-25T21:16:38.932Z,26.27
2019-02-25T21:19:07.992Z,25.27
2019-02-25T21:21:36.854Z,23.10
2019-02-25T21:24:06.258Z,22.20
2019-02-25T21:26:33.905Z,22.57
2019-02-25T21:29:04.647Z,23.37
2019-02-25T21:31:31.930Z,27.93
2019-02-25T21:34:00.783Z,36.93
2019-02-25T21:36:29.616Z,42.07
2019-02-25T21:38:57.243Z,26.27
2019-02-25T21:41:24.513Z,31.03
2019-02-25T21:43:53.845Z,48.90
2019-02-25T21:46:23.856Z,30.33
2019-02-25T21:48:53.164Z,32.80
2019-02-25T21:51:19.123Z,52.17
2019-02-25T21:53:46.386Z,40.30
2019-02-25T21:56:13.745Z,48.40
2019-02-25T21:58:42.913Z,42.87
2019-02-25T22:01:10.104Z,26.67
2019-02-25T22:03:41.075Z,23.90
2019-02-25T22:06:06.488Z,38.33
2019-02-25T22:08:36.119Z,37.90
2019-02-25T22:11:12.556Z,32.67
2019-02-25T22:13:31.888Z,25.87
2019-02-25T22:16:01.094Z,22.00
2019-02-25T22:18:29.761Z,33.27
2019-02-25T22:20:57.333Z,28.60
2019-02-25T22:23:26.217Z,40.03
2019-02-25T22:25:53.657Z,52.30
2019-02-25T22:28:20.959Z,32.50
2019-02-25T22:30:49.783Z,31.53
2019-02-25T22:33:27.271Z,28.90
2019-02-25T22:35:48.874Z,68.03
2019-02-25T22:38:15.440Z,39.40
2019-02-25T22:40:42.717Z,35.67
2019-02-25T22:43:10.546Z,36.97
2019-02-25T22:45:39.722Z,38.67
2019-02-25T22:48:08.135Z,33.83
2019-02-25T22:50:36.091Z,33.33
2019-02-25T22:53:06.764Z,23.10
2019-02-25T22:55:36.811Z,20.20
2019-02-25T22:58:02.595Z,19.50
2019-02-25T23:00:34.069Z,18.60
2019-02-25T23:03:01.421Z,15.87
2019-02-25T23:05:29.625Z,16.40
2019-02-25T23:07:56.859Z,17.37
2019-02-25T23:10:24.315Z,19.10
2019-02-25T23:12:51.990Z,18.03
2019-02-25T23:15:20.445Z,17.77
2019-02-25T23:17:48.358Z,18.27
2019-02-25T23:20:15.714Z,19.53
2019-02-25T23:22:42.959Z,23.17
2019-02-25T23:25:11.299Z,22.13
2019-02-25T23:27:38.979Z,21.90
2019-02-25T23:30:09.084Z,19.20
2019-02-25T23:32:38.833Z,18.33
2019-02-25T23:35:09.391Z,17.43
2019-02-25T23:37:35.067Z,19.37
2019-02-25T23:40:06.729Z,16.70
2019-02-25T23:42:37.099Z,17.57
2019-02-25T23:45:02.826Z,14.77
2019-02-25T23:47:31.623Z,15.53
2019-02-25T23:50:00.893Z,15.77
2019-02-25T23:52:30.298Z,16.67
2019-02-25T23:54:58.573Z,16.10
2019-02-25T23:57:26.192Z,15.57
2019-02-25T23:59:55.754Z,15.83
